Terminal Aerodrome Forecast
Issued by NWS

Home | Current Version | Previous Version | Text Only | Print | Product List | Glossary On
Versions: 1 2 3 4 5 6 7 8 9 10 11 12 13 14 15 16 17 18 19 20 21 22 23 24 25 26 27 28 29 30
000
FTUS41 KBTV 062336
TAFMSS
TAF
KMSS 062336Z 0700/0724 21005KT P6SM VCSH BKN070
      TEMPO 0700/0702 33015G25KT 6SM -SHRA
     FM070400 36008KT P6SM BKN040
     FM070800 34006KT P6SM SCT060
     FM072300 31007KT P6SM FEW070=

USA.gov is the U.S. government's official web portal to all federal, state and local government web resources and services.